Amsterdam, OH

3:26 AM EDT on July 31, 2014 (GMT -0400)
Sunset Gardens (KOHWINTE1) Elev 1150 ft | 40.38 °N, 80.72 °W | Change Station

Current weather conditions updated 1 minute ago

Clear
Clear
55.6 °F
Feels Like 55.6 °F
N
0.0
Wind Variable Wind from South
Gusts 0.0 mph

Today is forecast to be Warmer than yesterday. Partly cloudy with a stray thunderstorm.

Today
High -- | Low -- °F
--% Chance of Precip.
Yesterday
High -- | Low -- °F
Precip. -- in
6:20 AM 8:39 PM
Waxing Crescent, 16% visible
Pressure 30.05 in
Visibility 2.0 miles
Clouds Clear
Dew Point 55 °F
Humidity 97%
Rainfall 0.00 in
Snow Depth Not available.
UV 0 out of 12
Pollen 6.20 out of 12
Air Quality Not available.
Flu Activity Not available.
SPECI KPHD 310531Z AUTO 16003KT 2SM BR CLR 15/14 A3005 RMK AO2 VIS 3/4V5 T01500144

More Conditions Fewer Conditions

Pressure 30.05 in
Visibility 2.0 miles
Clouds Clear
Dew Point 55 °F
Humidity 97%
Rainfall 0.00 in
Snow Depth Not available.
UV 0 out of 12
Pollen 6.20 out of 12
Air Quality Not available.
Flu Activity Not available.
SPECI KPHD 310531Z AUTO 16003KT 2SM BR CLR 15/14 A3005 RMK AO2 VIS 3/4V5 T01500144

More Conditions Fewer Conditions

10-Day Weather Forecast

Almanac

Astronomy

Jul. 31, 2014 Rise Set
Actual Time 6:20 AM EDT 8:39 PM EDT
Civil Twilight 5:49 AM EDT 9:10 PM EDT
Nautical Twilight 5:11 AM EDT 9:48 PM EDT
Astronomical Twilight 4:29 AM EDT 10:29 PM EDT
Moon 10:47 AM EDT 10:50 PM EDT
Length of Visible Light 15h 20m
Length of Day
14h 19m
Tomorrow will be 2m 0s shorter.
Waxing Crescent, 16% of the Moon is Illuminated
Today
Waxing Crescent
Aug 3
First Quarter
Aug 10
Full
Aug 17
Last Quarter
Aug 25
New

Today's Extremes

State Highs State Lows

Community

WunderPhotos

Upload Photos

1,739,257 photos uploaded!

Nearby

Snow Depth

Station Depth Elevation
No new snow has been reported.

Earthquake Activity

City Distance Mag. Time & Date
No recent earthquake activity has been reported nearby.
Minimum magnitude displayed is 2.5.

Coastal Water Temperatures

Place Temperature
No Stations Reporting

Nearby Weather Stations

Station Location Temp. Dew Point Humidity Wind Precip. Elev Updated Type
Sunset Gardens, Wintersville, OH 55.6 °F 55 °F 97% South  at  0.0 mph 0.00 in / hr 1150 ft 3:25 AM EDT Normal
HADS OHIO RIVER AT NEW CUMBERLAND LOC OH, Stratton, OH 63 °F - - North  at  - 0.00 in / hr 668 ft 2:00 AM EDT MADIS
Kings Creek Bowl, Weirton, WV 55.6 °F 55 °F 99% North  at  0.0 mph 0.00 in / hr 814 ft 3:26 AM EDT Rapid Fire
Highland Hills, Follansbee, WV 56.7 °F 55 °F 94% ESE  at  0.0 mph - / hr 968 ft 3:13 AM EDT Normal
Guilford Lake State Park, Hanoverton, OH 60.4 °F 59 °F 96% WSW  at  0.0 mph 0.00 in / hr 1168 ft 3:26 AM EDT Normal
Calcutta, OH, East Liverpool, OH 59.7 °F 59 °F 97% SE  at  0.0 mph 0.00 in / hr 1221 ft 3:12 AM EDT Normal
Lockport, New Philadelphia, OH 59.6 °F 58 °F 93% WSW  at  1.0 mph 0.00 in / hr 856 ft 3:26 AM EDT Rapid Fire

Show More Stations Show Fewer Stations